createdAt,value
2023-01-28T00:01:17.399Z,7.53
2023-01-28T00:03:45.460Z,8.97
2023-01-28T00:06:15.609Z,9.20
2023-01-28T00:08:43.524Z,8.80
2023-01-28T00:11:13.197Z,8.20
2023-01-28T00:13:41.665Z,8.00
2023-01-28T00:16:10.324Z,7.90
2023-01-28T00:18:39.656Z,9.67
2023-01-28T00:21:10.725Z,9.10
2023-01-28T00:23:39.889Z,8.40
2023-01-28T00:26:10.812Z,8.80
2023-01-28T00:28:38.639Z,9.77
2023-01-28T00:31:10.642Z,9.97
2023-01-28T00:33:39.775Z,8.43
2023-01-28T00:36:08.230Z,8.03
2023-01-28T00:38:36.217Z,8.60
2023-01-28T00:41:11.145Z,8.90
2023-01-28T00:43:39.189Z,9.97
2023-01-28T00:46:08.607Z,9.17
2023-01-28T00:48:36.818Z,9.00
2023-01-28T00:51:06.534Z,8.80
2023-01-28T00:53:36.107Z,10.07
2023-01-28T00:56:04.360Z,8.93
2023-01-28T00:58:32.128Z,10.20
2023-01-28T01:01:08.372Z,9.83
2023-01-28T01:03:36.194Z,8.10
2023-01-28T01:06:06.333Z,9.93
2023-01-28T01:08:39.891Z,8.70
2023-01-28T01:11:09.222Z,10.33
2023-01-28T01:13:37.646Z,10.10
2023-01-28T01:16:08.068Z,10.07
2023-01-28T01:18:37.137Z,8.30
2023-01-28T01:21:09.031Z,9.47
2023-01-28T01:23:36.816Z,9.10
2023-01-28T01:26:04.851Z,9.00
2023-01-28T01:28:33.388Z,8.70
2023-01-28T01:31:02.285Z,9.40
2023-01-28T01:33:30.797Z,9.27
2023-01-28T01:35:59.112Z,9.20
2023-01-28T01:38:29.057Z,8.47
2023-01-28T01:40:59.407Z,9.83
2023-01-28T01:43:46.711Z,8.00
2023-01-28T01:46:16.570Z,9.83
2023-01-28T01:48:44.585Z,9.33
2023-01-28T01:51:16.171Z,10.20
2023-01-28T01:53:48.842Z,9.00
2023-01-28T01:56:22.360Z,9.77
2023-01-28T01:58:52.433Z,9.90
2023-01-28T02:01:23.851Z,8.87
2023-01-28T02:03:57.669Z,10.10
2023-01-28T02:06:26.074Z,10.20
2023-01-28T02:08:57.123Z,9.87
2023-01-28T02:11:28.022Z,9.50
2023-01-28T02:13:59.090Z,9.70
2023-01-28T02:16:27.767Z,8.73
2023-01-28T02:18:55.666Z,9.43
2023-01-28T02:21:53.693Z,10.10
2023-01-28T02:24:52.987Z,8.67
2023-01-28T02:27:34.206Z,8.73
2023-01-28T02:30:11.854Z,10.80
2023-01-28T02:32:46.178Z,9.57
2023-01-28T02:35:19.021Z,8.20
2023-01-28T02:37:52.649Z,8.47
2023-01-28T02:40:27.682Z,10.50
2023-01-28T02:42:55.434Z,9.43
2023-01-28T02:45:48.342Z,9.00
2023-01-28T02:48:16.185Z,8.30
2023-01-28T02:50:49.496Z,9.50
2023-01-28T02:53:43.751Z,7.40
2023-01-28T02:56:21.898Z,10.80
2023-01-28T02:58:57.921Z,8.60
2023-01-28T03:01:33.856Z,8.40
2023-01-28T03:04:07.799Z,9.73
2023-01-28T03:06:41.542Z,8.33
2023-01-28T03:09:24.413Z,9.03
2023-01-28T03:12:13.446Z,8.17
2023-01-28T03:15:00.358Z,9.03
2023-01-28T03:17:55.406Z,9.30
2023-01-28T03:20:44.046Z,8.77
2023-01-28T03:23:33.014Z,9.20
2023-01-28T03:26:20.240Z,8.53
2023-01-28T03:29:08.120Z,8.93
2023-01-28T03:31:55.548Z,9.90
2023-01-28T03:34:42.262Z,8.40
2023-01-28T03:37:10.451Z,9.00
2023-01-28T03:39:39.477Z,7.90
2023-01-28T03:42:09.942Z,9.43
2023-01-28T03:44:57.191Z,9.90
2023-01-28T03:47:26.512Z,8.77
2023-01-28T03:49:56.975Z,8.57
2023-01-28T03:52:26.290Z,9.90
2023-01-28T03:54:54.095Z,8.87
2023-01-28T03:57:23.961Z,8.70
2023-01-28T03:59:52.604Z,8.20
2023-01-28T04:02:21.490Z,7.77
2023-01-28T04:04:50.036Z,8.77
2023-01-28T04:07:19.431Z,9.13
2023-01-28T04:09:47.193Z,9.97
2023-01-28T04:12:14.925Z,9.37
2023-01-28T04:14:42.750Z,8.67
2023-01-28T04:17:11.024Z,8.10
2023-01-28T04:19:40.215Z,7.70
2023-01-28T04:22:09.208Z,8.70
2023-01-28T04:24:38.334Z,8.63
2023-01-28T04:27:06.102Z,7.80
2023-01-28T04:29:33.853Z,8.40
2023-01-28T04:32:01.739Z,7.20
2023-01-28T04:34:29.483Z,8.60
2023-01-28T04:36:57.205Z,9.10
2023-01-28T04:39:24.935Z,8.07
2023-01-28T04:41:54.053Z,8.20
2023-01-28T04:44:21.826Z,8.57
2023-01-28T04:46:49.623Z,8.53
2023-01-28T04:49:17.398Z,7.90
2023-01-28T04:51:45.177Z,9.77
2023-01-28T04:54:12.950Z,7.80
2023-01-28T04:56:40.766Z,8.20
2023-01-28T04:59:09.942Z,7.77
2023-01-28T05:01:37.733Z,8.33
2023-01-28T05:04:06.298Z,7.63
2023-01-28T05:06:34.355Z,7.77
2023-01-28T05:09:02.149Z,7.80
2023-01-28T05:11:29.897Z,7.83
2023-01-28T05:13:57.705Z,8.77
2023-01-28T05:16:26.865Z,7.33
2023-01-28T05:18:54.655Z,8.27
2023-01-28T05:21:22.496Z,8.13
2023-01-28T05:23:50.265Z,7.13
2023-01-28T05:26:18.034Z,8.10
2023-01-28T05:28:45.859Z,8.37
2023-01-28T05:31:13.977Z,6.93
2023-01-28T05:33:43.066Z,8.20
2023-01-28T05:36:11.020Z,8.30
2023-01-28T05:38:38.769Z,7.77
2023-01-28T05:41:06.536Z,8.20
2023-01-28T05:43:34.285Z,8.93
2023-01-28T05:46:02.094Z,7.87
2023-01-28T05:48:29.971Z,8.50
2023-01-28T05:50:59.037Z,8.80
2023-01-28T05:53:27.254Z,8.40
2023-01-28T05:55:55.127Z,7.90
2023-01-28T05:58:23.171Z,8.67
2023-01-28T06:00:50.971Z,9.23
2023-01-28T06:03:18.743Z,8.57
2023-01-28T06:05:46.459Z,9.53
2023-01-28T06:08:15.812Z,8.67
2023-01-28T06:10:43.616Z,7.80
2023-01-28T06:13:11.361Z,9.33
2023-01-28T06:15:39.167Z,7.33
2023-01-28T06:18:07.077Z,8.87
2023-01-28T06:20:35.161Z,8.53
2023-01-28T06:23:02.883Z,8.20
2023-01-28T06:25:31.997Z,9.10
2023-01-28T06:27:59.745Z,9.30
2023-01-28T06:30:27.753Z,8.50
2023-01-28T06:32:56.389Z,8.67
2023-01-28T06:35:24.460Z,7.83
2023-01-28T06:37:53.813Z,8.73
2023-01-28T06:40:22.753Z,9.47
2023-01-28T06:42:51.898Z,7.77
2023-01-28T06:45:19.663Z,8.40
2023-01-28T06:47:47.425Z,8.60
2023-01-28T06:50:15.537Z,7.20
2023-01-28T06:52:43.460Z,8.00
2023-01-28T06:55:11.557Z,7.27
2023-01-28T06:57:40.197Z,7.80
2023-01-28T07:00:12.528Z,8.17
2023-01-28T07:02:40.773Z,9.20
2023-01-28T07:05:08.946Z,8.27
2023-01-28T07:07:37.035Z,6.87
2023-01-28T07:10:05.649Z,8.40
2023-01-28T07:12:33.414Z,9.50
2023-01-28T07:15:01.157Z,7.97
2023-01-28T07:17:30.278Z,7.30
2023-01-28T07:19:58.094Z,7.20
2023-01-28T07:22:25.922Z,7.60
2023-01-28T07:24:53.624Z,6.17
2023-01-28T07:27:21.436Z,7.33
2023-01-28T07:29:49.183Z,7.07
2023-01-28T07:32:17.015Z,7.90
2023-01-28T07:34:46.153Z,7.57
2023-01-28T07:37:13.935Z,7.67
2023-01-28T07:39:41.756Z,7.23
2023-01-28T07:42:09.687Z,7.77
2023-01-28T07:44:37.490Z,7.83
2023-01-28T07:47:05.967Z,7.53
2023-01-28T07:49:34.986Z,6.87
2023-01-28T07:52:04.072Z,7.70
2023-01-28T07:54:31.832Z,7.80
2023-01-28T07:56:59.606Z,7.67
2023-01-28T07:59:27.628Z,7.43
2023-01-28T08:01:55.361Z,7.47
2023-01-28T08:04:23.483Z,7.70
2023-01-28T08:06:52.218Z,7.90
2023-01-28T08:09:21.439Z,8.13
2023-01-28T08:11:49.219Z,7.23
2023-01-28T08:14:16.990Z,8.37
2023-01-28T08:16:44.774Z,6.90
2023-01-28T08:19:12.651Z,7.40
2023-01-28T08:21:40.485Z,8.10
2023-01-28T08:24:08.795Z,6.67
2023-01-28T08:26:38.097Z,7.50
2023-01-28T08:29:06.101Z,7.07
2023-01-28T08:31:33.970Z,7.93
2023-01-28T08:34:02.452Z,6.90
2023-01-28T08:36:30.359Z,7.30
2023-01-28T08:38:58.124Z,8.50
2023-01-28T08:41:25.972Z,7.53
2023-01-28T08:43:55.079Z,7.00
2023-01-28T08:46:22.935Z,8.40
2023-01-28T08:48:51.201Z,7.63
2023-01-28T08:51:18.982Z,7.47
2023-01-28T08:53:46.776Z,8.10
2023-01-28T08:56:15.222Z,7.17
2023-01-28T08:58:43.054Z,7.23
2023-01-28T09:01:12.251Z,8.27
2023-01-28T09:03:40.055Z,8.83
2023-01-28T09:06:08.205Z,8.27
2023-01-28T09:08:35.988Z,8.43
2023-01-28T09:11:03.745Z,8.30
2023-01-28T09:13:31.566Z,7.43
2023-01-28T09:15:59.465Z,8.47
2023-01-28T09:18:28.616Z,7.47
2023-01-28T09:20:56.374Z,6.77
2023-01-28T09:23:24.168Z,7.93
2023-01-28T09:25:51.979Z,8.17
2023-01-28T09:28:19.772Z,7.87
2023-01-28T09:30:47.518Z,7.70
2023-01-28T09:33:15.294Z,6.87
2023-01-28T09:35:44.382Z,8.07
2023-01-28T09:38:12.122Z,9.03
2023-01-28T09:40:43.567Z,8.27
2023-01-28T09:43:27.557Z,8.30
2023-01-28T09:45:59.409Z,7.33
2023-01-28T09:48:32.742Z,8.67
2023-01-28T09:51:02.392Z,8.40
2023-01-28T09:53:33.265Z,7.23
2023-01-28T09:56:04.951Z,7.07
2023-01-28T09:58:33.258Z,7.73
2023-01-28T10:01:21.777Z,7.43
2023-01-28T10:03:56.281Z,7.53
2023-01-28T10:06:36.803Z,6.90
2023-01-28T10:09:28.715Z,8.20
2023-01-28T10:12:11.498Z,8.70
2023-01-28T10:14:48.953Z,6.83
2023-01-28T10:17:22.920Z,8.00
2023-01-28T10:19:55.576Z,7.53
2023-01-28T10:22:29.647Z,7.40
2023-01-28T10:25:01.765Z,7.70
2023-01-28T10:27:31.651Z,7.30
2023-01-28T10:30:03.182Z,6.80
2023-01-28T10:32:33.994Z,7.03
2023-01-28T10:35:03.542Z,6.40
2023-01-28T10:37:36.461Z,7.07
2023-01-28T10:40:05.927Z,6.30
2023-01-28T10:42:35.502Z,6.77
2023-01-28T10:45:08.315Z,6.53
2023-01-28T10:47:40.910Z,6.23
2023-01-28T10:50:16.963Z,5.90
2023-01-28T10:52:55.766Z,5.93
2023-01-28T10:55:24.685Z,5.73
2023-01-28T10:57:52.617Z,5.70
2023-01-28T11:00:25.640Z,6.43
2023-01-28T11:02:54.886Z,7.67
2023-01-28T11:05:26.450Z,6.83
2023-01-28T11:08:06.878Z,5.97
2023-01-28T11:10:37.006Z,5.43
2023-01-28T11:13:06.829Z,6.13
2023-01-28T11:15:34.915Z,6.37
2023-01-28T11:18:06.161Z,5.30
2023-01-28T11:20:39.134Z,6.17
2023-01-28T11:23:08.422Z,5.57
2023-01-28T11:25:38.233Z,6.57
2023-01-28T11:28:16.561Z,5.90
2023-01-28T11:30:44.369Z,7.47
2023-01-28T11:33:18.601Z,5.53
2023-01-28T11:35:54.949Z,6.33
2023-01-28T11:38:26.285Z,6.17
2023-01-28T11:40:55.637Z,7.17
2023-01-28T11:43:25.846Z,7.00
2023-01-28T11:46:05.854Z,7.10
2023-01-28T11:48:43.714Z,6.50
2023-01-28T11:51:25.018Z,6.10
2023-01-28T11:54:08.518Z,6.10
2023-01-28T11:56:50.120Z,6.80
2023-01-28T11:59:37.355Z,7.70
2023-01-28T12:02:18.106Z,7.90
2023-01-28T12:04:58.522Z,8.10
2023-01-28T12:07:37.518Z,7.07
2023-01-28T12:10:17.029Z,6.43
2023-01-28T12:13:10.609Z,5.80
2023-01-28T12:16:19.941Z,7.93
2023-01-28T12:19:19.578Z,7.10
2023-01-28T12:22:06.396Z,6.70
2023-01-28T12:24:44.933Z,7.17
2023-01-28T12:27:30.019Z,5.90
2023-01-28T12:30:05.477Z,6.33
2023-01-28T12:32:48.903Z,7.00
2023-01-28T12:35:45.632Z,6.37
2023-01-28T12:38:16.923Z,8.13
2023-01-28T12:40:58.315Z,6.83
2023-01-28T12:43:47.602Z,7.20
2023-01-28T12:46:26.768Z,6.33
2023-01-28T12:49:00.886Z,6.07
2023-01-28T12:51:33.977Z,6.33
2023-01-28T12:54:07.406Z,5.20
2023-01-28T12:56:38.245Z,6.73
2023-01-28T12:59:13.640Z,5.17
2023-01-28T13:01:45.070Z,6.40
2023-01-28T13:04:20.724Z,6.80
2023-01-28T13:06:51.995Z,5.87
2023-01-28T13:09:22.422Z,5.00
2023-01-28T13:11:53.764Z,6.97
2023-01-28T13:14:26.934Z,5.67
2023-01-28T13:16:54.729Z,5.53
2023-01-28T13:19:25.945Z,5.20
2023-01-28T13:21:53.863Z,6.13
2023-01-28T13:24:24.531Z,6.30
2023-01-28T13:26:53.998Z,6.90
2023-01-28T13:29:31.883Z,7.80
2023-01-28T13:32:01.123Z,5.90
2023-01-28T13:34:36.010Z,6.27
2023-01-28T13:37:08.415Z,7.50
2023-01-28T13:39:37.744Z,6.70
2023-01-28T13:42:23.298Z,6.73
2023-01-28T13:44:52.937Z,6.10
2023-01-28T13:47:26.523Z,6.70
2023-01-28T13:49:59.195Z,7.00
2023-01-28T13:52:30.576Z,6.33
2023-01-28T13:55:04.455Z,5.27
2023-01-28T13:58:13.109Z,4.53
2023-01-28T14:00:59.095Z,5.70
2023-01-28T14:03:54.704Z,6.67
2023-01-28T14:06:54.706Z,6.50
2023-01-28T14:09:40.165Z,6.10
2023-01-28T14:12:42.269Z,4.53
2023-01-28T14:15:40.197Z,5.07
2023-01-28T14:18:19.438Z,5.10
2023-01-28T14:20:47.596Z,5.47
2023-01-28T14:23:18.681Z,5.70
2023-01-28T14:26:01.143Z,5.73
2023-01-28T14:28:39.840Z,4.73
2023-01-28T14:31:12.431Z,5.50
2023-01-28T14:33:42.756Z,5.83
2023-01-28T14:36:11.993Z,5.43
2023-01-28T14:38:42.326Z,5.07
2023-01-28T14:41:11.416Z,6.10
2023-01-28T14:43:41.919Z,4.97
2023-01-28T14:46:22.324Z,5.63
2023-01-28T14:49:06.433Z,5.90
2023-01-28T14:51:47.858Z,4.50
2023-01-28T14:54:30.282Z,4.97
2023-01-28T14:57:11.458Z,5.60
2023-01-28T14:59:44.726Z,5.30
2023-01-28T15:02:19.841Z,5.60
2023-01-28T15:04:49.590Z,5.63
2023-01-28T15:07:20.023Z,4.80
2023-01-28T15:09:48.609Z,6.10
2023-01-28T15:12:18.152Z,5.47
2023-01-28T15:14:48.067Z,6.50
2023-01-28T15:17:25.530Z,6.40
2023-01-28T15:19:56.827Z,7.30
2023-01-28T15:22:28.312Z,5.90
2023-01-28T15:24:56.946Z,5.97
2023-01-28T15:27:29.778Z,5.90
2023-01-28T15:29:59.489Z,5.73
2023-01-28T15:32:29.074Z,5.40
2023-01-28T15:35:00.997Z,4.93
2023-01-28T15:37:28.819Z,5.33
2023-01-28T15:40:05.905Z,5.47
2023-01-28T15:42:35.063Z,6.17
2023-01-28T15:45:03.586Z,6.33
2023-01-28T15:47:33.801Z,5.97
2023-01-28T15:50:09.251Z,5.73
2023-01-28T15:52:39.343Z,6.20
2023-01-28T15:55:29.909Z,5.83
2023-01-28T15:57:57.705Z,6.63
2023-01-28T16:00:26.513Z,6.27
2023-01-28T16:02:56.155Z,6.50
2023-01-28T16:05:29.382Z,5.90
2023-01-28T16:07:58.342Z,5.60
2023-01-28T16:10:28.326Z,6.70
2023-01-28T16:13:04.575Z,5.90
2023-01-28T16:15:33.222Z,7.20
2023-01-28T16:18:01.654Z,6.30
2023-01-28T16:20:31.331Z,6.67
2023-01-28T16:23:01.210Z,7.23
2023-01-28T16:25:31.917Z,7.23
2023-01-28T16:28:01.649Z,6.70
2023-01-28T16:30:30.326Z,5.83
2023-01-28T16:32:58.206Z,7.00
2023-01-28T16:35:38.227Z,6.83
2023-01-28T16:38:17.679Z,8.33
2023-01-28T16:40:46.030Z,7.17
2023-01-28T16:43:15.357Z,6.63
2023-01-28T16:45:44.053Z,8.40
2023-01-28T16:48:12.047Z,7.70
2023-01-28T16:50:41.161Z,7.80
2023-01-28T16:53:20.662Z,7.37
2023-01-28T16:55:51.493Z,8.17
2023-01-28T16:58:23.647Z,7.70
2023-01-28T17:00:51.744Z,8.10
2023-01-28T17:03:19.680Z,6.73
2023-01-28T17:05:47.496Z,6.53
2023-01-28T17:08:15.311Z,6.80
2023-01-28T17:10:44.499Z,6.60
2023-01-28T17:13:13.292Z,5.90
2023-01-28T17:15:41.280Z,6.37
2023-01-28T17:18:10.816Z,6.03
2023-01-28T17:20:40.304Z,5.93
2023-01-28T17:23:09.041Z,6.50
2023-01-28T17:25:39.426Z,6.67
2023-01-28T17:28:09.771Z,6.03
2023-01-28T17:30:41.211Z,6.50
2023-01-28T17:33:09.766Z,6.20
2023-01-28T17:35:38.070Z,6.70
2023-01-28T17:38:06.516Z,8.23
2023-01-28T17:40:34.353Z,5.70
2023-01-28T17:43:02.066Z,6.33
2023-01-28T17:45:32.854Z,7.07
2023-01-28T17:48:00.785Z,8.53
2023-01-28T17:50:28.658Z,6.70
2023-01-28T17:52:57.448Z,5.47
2023-01-28T17:55:25.452Z,6.93
2023-01-28T17:57:53.484Z,5.80
2023-01-28T18:00:22.333Z,6.20
2023-01-28T18:02:52.816Z,7.50
2023-01-28T18:05:20.825Z,6.47
2023-01-28T18:07:50.248Z,6.27
2023-01-28T18:10:19.187Z,5.70
2023-01-28T18:12:47.061Z,5.50
2023-01-28T18:15:15.345Z,5.70
2023-01-28T18:17:43.521Z,7.00
2023-01-28T18:20:13.094Z,6.57
2023-01-28T18:22:40.856Z,7.17
2023-01-28T18:25:09.405Z,7.53
2023-01-28T18:27:37.188Z,6.47
2023-01-28T18:30:05.674Z,6.70
2023-01-28T18:32:33.466Z,7.63
2023-01-28T18:35:02.157Z,7.47
2023-01-28T18:37:31.330Z,8.10
2023-01-28T18:39:59.241Z,8.27
2023-01-28T18:42:27.286Z,7.13
2023-01-28T18:44:55.121Z,8.70
2023-01-28T18:47:23.065Z,8.47
2023-01-28T18:49:50.814Z,8.20
2023-01-28T18:52:18.592Z,7.77
2023-01-28T18:54:47.770Z,7.63
2023-01-28T18:57:15.531Z,7.77
2023-01-28T18:59:43.318Z,8.83
2023-01-28T19:02:15.571Z,8.70
2023-01-28T19:04:43.687Z,7.77
2023-01-28T19:07:11.964Z,7.40
2023-01-28T19:09:39.809Z,7.23
2023-01-28T19:12:08.986Z,6.67
2023-01-28T19:14:36.777Z,7.17
2023-01-28T19:17:04.614Z,8.03
2023-01-28T19:19:32.504Z,8.97
2023-01-28T19:22:00.311Z,7.33
2023-01-28T19:24:28.581Z,7.43
2023-01-28T19:26:56.411Z,9.23
2023-01-28T19:29:28.396Z,8.37
2023-01-28T19:31:56.384Z,8.50
2023-01-28T19:34:24.264Z,8.63
2023-01-28T19:36:52.054Z,8.20
2023-01-28T19:39:20.298Z,9.97
2023-01-28T19:41:48.063Z,8.63
2023-01-28T19:44:15.928Z,8.17
2023-01-28T19:46:45.032Z,9.03
2023-01-28T19:49:12.990Z,8.13
2023-01-28T19:51:40.814Z,7.70
2023-01-28T19:54:08.631Z,8.27
2023-01-28T19:56:37.514Z,9.17
2023-01-28T19:59:05.990Z,8.53
2023-01-28T20:01:35.340Z,8.80
2023-01-28T20:04:04.882Z,9.00
2023-01-28T20:06:33.533Z,8.70
2023-01-28T20:09:04.271Z,9.27
2023-01-28T20:11:32.146Z,8.70
2023-01-28T20:14:00.696Z,8.90
2023-01-28T20:16:30.825Z,8.90
2023-01-28T20:19:00.554Z,8.50
2023-01-28T20:21:31.149Z,9.30
2023-01-28T20:24:00.457Z,9.30
2023-01-28T20:26:32.065Z,9.40
2023-01-28T20:29:02.112Z,8.07
2023-01-28T20:31:30.015Z,8.67
2023-01-28T20:33:57.822Z,8.50
2023-01-28T20:36:25.614Z,8.83
2023-01-28T20:38:54.714Z,7.13
2023-01-28T20:41:24.291Z,9.03
2023-01-28T20:43:53.499Z,8.97
2023-01-28T20:46:23.520Z,8.97
2023-01-28T20:48:51.352Z,9.70
2023-01-28T20:51:21.051Z,8.20
2023-01-28T20:53:49.603Z,7.63
2023-01-28T20:56:22.497Z,8.17
2023-01-28T20:58:55.961Z,9.20
2023-01-28T21:01:25.622Z,8.30
2023-01-28T21:03:53.548Z,8.97
2023-01-28T21:06:21.397Z,8.93
2023-01-28T21:08:49.577Z,8.50
2023-01-28T21:11:18.837Z,8.17
2023-01-28T21:13:46.681Z,8.00
2023-01-28T21:16:14.522Z,8.17
2023-01-28T21:18:42.329Z,8.53
2023-01-28T21:21:14.650Z,8.57
2023-01-28T21:23:42.775Z,9.57
2023-01-28T21:26:11.769Z,8.53
2023-01-28T21:28:40.899Z,10.33
2023-01-28T21:31:09.925Z,9.90
2023-01-28T21:33:38.044Z,10.80
2023-01-28T21:36:10.218Z,8.50
2023-01-28T21:38:38.054Z,8.90
2023-01-28T21:41:06.260Z,9.67
2023-01-28T21:43:34.688Z,9.20
2023-01-28T21:46:04.678Z,10.37
2023-01-28T21:48:32.538Z,9.70
2023-01-28T21:51:23.649Z,9.13
2023-01-28T21:53:51.492Z,8.17
2023-01-28T21:56:19.306Z,9.20
2023-01-28T21:59:04.232Z,9.60
2023-01-28T22:01:33.423Z,9.50
2023-01-28T22:04:01.291Z,10.33
2023-01-28T22:06:29.230Z,9.13
2023-01-28T22:08:57.105Z,8.80
2023-01-28T22:11:24.887Z,8.90
2023-01-28T22:13:52.617Z,9.07
2023-01-28T22:16:20.469Z,8.70
2023-01-28T22:18:50.119Z,8.40
2023-01-28T22:21:18.081Z,9.80
2023-01-28T22:23:45.907Z,9.20
2023-01-28T22:26:13.681Z,9.37
2023-01-28T22:28:41.437Z,9.00
2023-01-28T22:31:11.130Z,9.23
2023-01-28T22:33:39.744Z,8.40
2023-01-28T22:36:12.263Z,8.97
2023-01-28T22:38:40.439Z,9.47
2023-01-28T22:41:09.180Z,8.97
2023-01-28T22:43:37.274Z,8.57
2023-01-28T22:46:06.181Z,7.70
2023-01-28T22:48:36.508Z,8.50
2023-01-28T22:51:05.223Z,7.83
2023-01-28T22:53:34.764Z,8.57
2023-01-28T22:56:02.672Z,8.03
2023-01-28T23:01:15.251Z,9.57
2023-01-28T23:03:47.106Z,9.37
2023-01-28T23:06:16.507Z,10.80
2023-01-28T23:08:46.140Z,10.13
2023-01-28T23:11:15.955Z,9.43
2023-01-28T23:13:58.745Z,9.03
2023-01-28T23:16:44.109Z,9.33
2023-01-28T23:19:29.418Z,9.40
2023-01-28T23:22:14.731Z,8.57
2023-01-28T23:24:43.854Z,8.20
2023-01-28T23:27:11.631Z,7.93
2023-01-28T23:29:39.405Z,9.07
2023-01-28T23:32:09.694Z,8.40
2023-01-28T23:34:39.631Z,9.07
2023-01-28T23:37:09.318Z,10.00
2023-01-28T23:39:37.108Z,9.70
2023-01-28T23:42:14.504Z,10.20
2023-01-28T23:44:42.413Z,8.40
2023-01-28T23:47:10.561Z,7.80
2023-01-28T23:49:38.489Z,8.77
2023-01-28T23:52:07.390Z,7.80
2023-01-28T23:54:35.781Z,9.40
2023-01-28T23:57:05.004Z,9.47
2023-01-28T23:59:34.143Z,9.40
